Elkins, West Virginia
Current Conditions -  °F | °C
As of 8:51 AM on Saturday 20 Dec 2014 (Local Time) from KEKN Reporting Station
Clear Clear  
Wind Chill: 25°   Ceiling: Unl
Heat Index: 25°   Visibility: 10mi
Dew Point: 21°   Wind: 0mph
Humidity: 85%   Direction: NA
Pressure: 30.2"   Gusts: NA
Location:  38.92°N, 79.84°W
Report Text: KEKN 201351Z AUTO 00000KT 10SM CLR M04/M06 A3020 RMK AO2 SLP257 T10391061 TSNO $
Loading
Personal Weather Stations






























Interactive Weather Map New forecast layout! Learn more

10-Day Weather Forecast

Advertisements
Track Severe Weather on mobile